Friday, January 19, 2018, 10:37 AM EST
Back to Local

KSNC, Chester, Chester Airport

Location: Chester, CT, United States Lat: 41.384
Local Time: 10:37 AM EST (15:37 GMT) Lon: -72.506
Time Zone: US/Eastern Elev: 416 ft

Show me the last for .
Show Decoded

2018-01-19 10:15 METAR KSNC 191515Z AUTO 26006KT 10SM CLR M01/M10 A3002 RMK AO2 =
2018-01-19 09:55 METAR KSNC 191455Z AUTO VRB04G10KT 10SM CLR M02/M10 A3002 RMK AO2 =
2018-01-19 09:35 METAR KSNC 191435Z AUTO VRB04KT 10SM CLR M03/M10 A3002 RMK AO2 =
2018-01-19 09:15 METAR KSNC 191415Z AUTO 25004KT 10SM CLR M03/M10 A3002 RMK AO2 =
2018-01-19 08:55 METAR KSNC 191355Z AUTO 29005KT 10SM CLR M04/M10 A3002 RMK AO2 =
2018-01-19 08:35 METAR KSNC 191335Z AUTO VRB04KT 10SM CLR M05/M10 A3002 RMK AO2 =
2018-01-19 08:15 METAR KSNC 191315Z AUTO 26004KT 7SM CLR M06/M10 A3001 RMK AO2 =
2018-01-19 07:55 METAR KSNC 191255Z AUTO 25005KT 10SM CLR M06/M10 A3001 RMK AO2 =
2018-01-19 07:35 METAR KSNC 191235Z AUTO 4.96000005KT 10SM CLR M07/M11 A3001 RMK AO2 =
2018-01-19 07:15 METAR KSNC 191215Z AUTO 25006KT 10SM CLR M07/M10 A3000 RMK AO2 =
2018-01-19 06:55 METAR KSNC 191155Z AUTO 25006KT 10SM CLR M07/M10 A3000 RMK AO2 =
2018-01-19 06:35 METAR KSNC 191135Z AUTO 26004KT 10SM FEW031 M07/M10 A3000 RMK AO2 =
2018-01-19 06:15 METAR KSNC 191115Z AUTO 25005KT 10SM SCT030 M06/M10 A3000 RMK AO2 =
2018-01-19 05:55 METAR KSNC 191055Z AUTO 26004KT 10SM SCT030 M07/M10 A3000 RMK AO2 =
2018-01-19 05:35 METAR KSNC 191035Z AUTO 00000KT 10SM SCT030 M07/M10 A3000 RMK AO2 =
2018-01-19 05:15 METAR KSNC 191015Z AUTO 27004KT 10SM CLR M06/M10 A3000 RMK AO2 =
2018-01-19 04:55 METAR KSNC 190955Z AUTO 26005KT 10SM CLR M07/M10 A3000 RMK AO2 =
2018-01-19 04:35 METAR KSNC 190935Z AUTO VRB04KT 10SM CLR M07/M10 A2999 RMK AO2 =
2018-01-19 04:15 METAR KSNC 190915Z AUTO 28004KT 10SM CLR M06/M10 A2999 RMK AO2 =
2018-01-19 03:55 METAR KSNC 190855Z AUTO 27005KT 10SM CLR M06/M10 A2998 RMK AO2 =
2018-01-19 03:35 METAR KSNC 190835Z AUTO 26004KT 10SM CLR M06/M10 A2998 RMK AO2 =
2018-01-19 03:15 METAR KSNC 190815Z AUTO 27004KT 10SM CLR M06/M10 A2997 RMK AO2 =
2018-01-19 02:55 METAR KSNC 190755Z AUTO 26005KT 9SM CLR M06/M10 A2998 RMK AO2 =
2018-01-19 02:35 METAR KSNC 190735Z AUTO 00000KT 10SM CLR M07/M10 A2998 RMK AO2 =
2018-01-19 02:15 METAR KSNC 190715Z AUTO 00000KT 10SM CLR M06/M10 A2998 RMK AO2 =
2018-01-19 01:55 METAR KSNC 190655Z AUTO 00000KT 10SM CLR M06/M10 A2998 RMK AO2 =
2018-01-19 01:35 METAR KSNC 190635Z AUTO 29006KT 10SM CLR M06/M10 A2998 RMK AO2 =
2018-01-19 01:15 METAR KSNC 190615Z AUTO 29005KT 10SM CLR M06/M10 A2998 RMK AO2 =
2018-01-19 00:55 METAR KSNC 190555Z AUTO 29005G12KT 10SM CLR M06/M10 A2998 RMK AO2 =
2018-01-19 00:35 METAR KSNC 190535Z AUTO 30007G12KT 10SM CLR M06/M10 A2998 RMK AO2 =
2018-01-19 00:15 METAR KSNC 190515Z AUTO 29005G10KT 10SM CLR M06/M10 A2998 RMK AO2 =
2018-01-18 23:55 METAR KSNC 190455Z AUTO 29005KT 10SM CLR M06/M10 A2999 RMK AO2 =
2018-01-18 23:35 METAR KSNC 190435Z AUTO 30005KT 10SM CLR M06/M10 A2999 RMK AO2 =
2018-01-18 23:15 METAR KSNC 190415Z AUTO 30005G12KT 10SM CLR M05/M10 A3000 RMK AO2 =
2018-01-18 22:55 METAR KSNC 190355Z AUTO 31007G13KT 280V350 10SM CLR M05/M10 A3000 RMK AO2 =
2018-01-18 22:35 METAR KSNC 190335Z AUTO 30006G14KT 10SM CLR M05/M10 A3001 RMK AO2 =
2018-01-18 22:15 METAR KSNC 190315Z AUTO 31007KT 10SM CLR M05/M10 A3001 RMK AO2 =
2018-01-18 21:55 METAR KSNC 190255Z AUTO 30008KT 10SM CLR M05/M10 A3000 RMK AO2 =
2018-01-18 21:35 METAR KSNC 190235Z AUTO 31006KT 10SM CLR M05/M10 A3000 RMK AO2 =
2018-01-18 21:15 METAR KSNC 190215Z AUTO 31005KT 10SM CLR M05/M10 A3000 RMK AO2 =
2018-01-18 20:55 METAR KSNC 190155Z AUTO 30004KT 10SM CLR M05/M10 A2999 RMK AO2 =
2018-01-18 20:35 METAR KSNC 190135Z AUTO 31005KT 10SM CLR M05/M10 A2999 RMK AO2 =
2018-01-18 20:15 METAR KSNC 190115Z AUTO 30006KT 10SM CLR M05/M10 A2998 RMK AO2 =
2018-01-18 19:55 METAR KSNC 190055Z AUTO 32005KT 10SM CLR M04/M10 A2997 RMK AO2 =
2018-01-18 19:35 METAR KSNC 190035Z AUTO 33008KT 10SM CLR M04/M10 A2997 RMK AO2 =
2018-01-18 19:15 METAR KSNC 190015Z AUTO 33008KT 10SM CLR M04/M11 A2996 RMK AO2 =
2018-01-18 18:55 METAR KSNC 182355Z AUTO 32006KT 10SM CLR M04/M11 A2995 RMK AO2 =
2018-01-18 18:15 METAR KSNC 182315Z AUTO 32006KT 10SM CLR M04/M10 A2994 RMK AO2 =
2018-01-18 17:55 METAR KSNC 182255Z AUTO 32007KT 10SM CLR M03/M10 A2992 RMK AO2 =
2018-01-18 17:35 METAR KSNC 182235Z AUTO 33006KT 10SM CLR M03/M11 A2991 RMK AO2 =
2018-01-18 17:15 METAR KSNC 182215Z AUTO VRB06KT 10SM CLR M03/M11 A2990 RMK AO2 =
2018-01-18 16:55 METAR KSNC 182155Z AUTO 33006KT 10SM CLR M02/M11 A2989 RMK AO2 =
2018-01-18 16:35 METAR KSNC 182135Z AUTO 33008G15KT 10SM CLR M02/M11 A2988 RMK AO2 =
2018-01-18 16:15 METAR KSNC 182115Z AUTO 32007G16KT 10SM CLR M01/M11 A2987 RMK AO2 =
2018-01-18 15:55 METAR KSNC 182055Z AUTO 33010G15KT 10SM CLR M01/M11 A2987 RMK AO2 =
2018-01-18 15:35 METAR KSNC 182035Z AUTO 32013G20KT 10SM CLR M01/M12 A2986 RMK AO2 =
2018-01-18 15:15 METAR KSNC 182015Z AUTO 33013KT 10SM CLR M00/M12 A2985 RMK AO2 =
2018-01-18 14:55 METAR KSNC 181955Z AUTO 34017G24KT 10SM CLR M00/M12 A2985 RMK AO2 =
2018-01-18 14:35 METAR KSNC 181935Z AUTO 32013KT 10SM CLR M00/M12 A2985 RMK AO2 =
2018-01-18 14:15 METAR KSNC 181915Z AUTO 35013G18KT 10SM CLR M00/M12 A2986 RMK AO2 =
2018-01-18 13:55 METAR KSNC 181855Z AUTO 31010G19KT 10SM CLR M01/M12 A2986 RMK AO2 =
2018-01-18 13:35 METAR KSNC 181835Z AUTO 32014G20KT 10SM CLR M00/M12 A2986 RMK AO2 =
2018-01-18 13:15 METAR KSNC 181815Z AUTO 32016KT 10SM CLR M00/M12 A2986 RMK AO2 =
2018-01-18 12:55 METAR KSNC 181755Z AUTO 35011G17KT 310V010 10SM CLR M01/M12 A2988 RMK AO2 =
2018-01-18 12:35 METAR KSNC 181735Z AUTO 33011G18KT 10SM CLR M01/M12 A2990 RMK AO2 =
2018-01-18 12:15 METAR KSNC 181715Z AUTO 36010G16KT 10SM CLR M01/M12 A2990 RMK AO2 =
2018-01-18 11:55 METAR KSNC 181655Z AUTO 33012KT 10SM CLR M01/M11 A2992 RMK AO2 =
2018-01-18 11:35 METAR KSNC 181635Z AUTO 00000KT 10SM CLR M02/M11 A2994 RMK AO2 =
2018-01-18 11:15 METAR KSNC 181615Z AUTO 00000KT 10SM CLR M02/M12 A2995 RMK AO2 =
2018-01-18 10:55 METAR KSNC 181555Z AUTO 00000KT 10SM CLR M02/M12 A2997 RMK AO2 =

Support USWX by starting your Amazon purchase here.